Time;durP1;ratioP1;P1;durP2;ratioP2;P2;SDS_P1;SDS_P2;PMS_P1;PMS_P2;Temp;Humidity;BMP_temperature;BMP_pressure;BME280_temperature;BME280_humidity;BME280_pressure;Samples;Min_cycle;Max_cycle;Signal;HPM_P1;HPM_P2
2021/10/04 10:03:31;;;;;;;7.90;2.70;;;;;;;;;;2242968;23;20819;-60
2021/10/04 10:04:32;;;;;;;2.45;2.20;;;;;;;;;;2038091;29;20248;-57
2021/10/04 10:05:34;;;;;;;4.28;1.92;;;;;;;;;;2036680;29;20203;-59
2021/10/04 10:06:34;;;;;;;5.15;2.33;;;;;;;;;;2037219;29;20187;-57
2021/10/04 10:07:35;;;;;;;2.97;2.17;;;;;;;;;;2038230;29;20543;-58
2021/10/04 10:08:35;;;;;;;4.32;2.53;;;;;;;;;;2041070;29;20187;-60
2021/10/04 10:09:36;;;;;;;5.60;2.28;;;;;;;;;;2040092;29;20180;-63
2021/10/04 10:10:37;;;;;;;5.32;2.33;;;;;;;;;;2039047;29;20206;-61
2021/10/04 10:11:40;;;;;;;3.05;1.88;;;;;;;;;;2048184;29;20183;-62
2021/10/04 10:12:40;;;;;;;2.40;1.88;;;;;;;;;;2041988;29;20175;-63
2021/10/04 10:13:40;;;;;;;3.70;2.30;;;;;;;;;;2041819;29;20207;-62
2021/10/04 10:14:43;;;;;;;8.52;2.38;;;;;;;;;;2041675;29;20235;-63
2021/10/04 10:15:47;;;;;;;2.35;1.75;;;;;;;;;;2042102;29;20214;-61
2021/10/04 10:16:51;;;;;;;2.15;1.80;;;;;;;;;;2036799;29;20208;-63
2021/10/04 10:17:54;;;;;;;2.75;2.10;;;;;;;;;;2036636;29;20208;-61
2021/10/04 10:18:59;;;;;;;3.35;1.98;;;;;;;;;;2040251;29;20165;-62
2021/10/04 10:20:00;;;;;;;4.05;1.88;;;;;;;;;;2043443;29;20183;-61
2021/10/04 10:21:02;;;;;;;3.80;1.60;;;;;;;;;;2036154;29;20168;-60
2021/10/04 10:22:10;;;;;;;1.98;1.83;;;;;;;;;;2041806;29;20179;-59
2021/10/04 10:23:11;;;;;;;2.92;1.70;;;;;;;;;;2037749;29;20251;-61
2021/10/04 10:24:11;;;;;;;2.55;2.03;;;;;;;;;;2041856;29;20596;-61
2021/10/04 10:25:28;;;;;;;2.33;2.10;;;;;;;;;;2041882;29;20259;-61
2021/10/04 10:26:42;;;;;;;7.10;2.28;;;;;;;;;;2042754;29;20175;-63
2021/10/04 10:27:42;;;;;;;2.13;1.60;;;;;;;;;;2040618;29;20206;-60
2021/10/04 10:28:43;;;;;;;2.63;2.30;;;;;;;;;;2039549;29;20268;-55
2021/10/04 10:29:43;;;;;;;3.38;2.08;;;;;;;;;;2039983;29;20859;-58
2021/10/04 10:30:50;;;;;;;3.80;2.00;;;;;;;;;;2047541;29;20243;-61
2021/10/04 10:31:50;;;;;;;8.07;2.30;;;;;;;;;;2047014;29;20174;-61
2021/10/04 10:32:51;;;;;;;2.33;2.13;;;;;;;;;;2040610;29;20187;-57
2021/10/04 10:33:51;;;;;;;4.05;1.92;;;;;;;;;;2043366;28;20222;-62
2021/10/04 10:34:52;;;;;;;7.15;2.10;;;;;;;;;;2042295;29;20172;-63
2021/10/04 10:35:54;;;;;;;4.85;2.90;;;;;;;;;;2040794;29;20188;-62
2021/10/04 10:37:09;;;;;;;4.72;2.17;;;;;;;;;;2038897;29;20267;-61
2021/10/04 10:38:10;;;;;;;2.75;2.15;;;;;;;;;;2038844;29;20191;-60
2021/10/04 10:39:10;;;;;;;1.80;1.70;;;;;;;;;;2040038;29;20184;-61
2021/10/04 10:40:13;;;;;;;3.55;2.35;;;;;;;;;;2046442;29;20213;-59
2021/10/04 10:41:14;;;;;;;2.47;2.05;;;;;;;;;;2050434;29;20702;-58
2021/10/04 10:42:20;;;;;;;3.10;2.45;;;;;;;;;;2046580;29;20174;-61
2021/10/04 10:43:20;;;;;;;6.57;2.63;;;;;;;;;;2045427;29;20208;-59
2021/10/04 10:44:21;;;;;;;2.40;2.20;;;;;;;;;;2045022;29;20175;-59
2021/10/04 10:45:21;;;;;;;3.95;2.00;;;;;;;;;;2042697;29;20179;-58
2021/10/04 10:46:41;;;;;;;2.75;2.00;;;;;;;;;;2043112;29;20607;-58
2021/10/04 10:47:42;;;;;;;2.60;2.33;;;;;;;;;;2043241;29;20191;-58
2021/10/04 10:48:44;;;;;;;3.05;1.88;;;;;;;;;;2041726;29;20585;-62
2021/10/04 10:49:58;;;;;;;3.03;2.28;;;;;;;;;;2042507;29;20203;-59
2021/10/04 10:51:08;;;;;;;3.53;1.77;;;;;;;;;;2039570;29;20273;-61
2021/10/04 10:52:14;;;;;;;5.72;2.10;;;;;;;;;;2036891;29;20179;-60
2021/10/04 10:53:25;;;;;;;3.00;2.00;;;;;;;;;;2041666;29;20219;-61
2021/10/04 10:54:37;;;;;;;4.68;2.25;;;;;;;;;;2038575;29;20191;-62
2021/10/04 10:55:40;;;;;;;2.30;2.10;;;;;;;;;;2038658;29;20578;-58
2021/10/04 10:56:53;;;;;;;2.95;1.83;;;;;;;;;;2038569;29;20211;-61
2021/10/04 10:57:54;;;;;;;5.70;3.00;;;;;;;;;;2037607;29;20442;-60
2021/10/04 10:58:54;;;;;;;3.55;2.53;;;;;;;;;;2041452;29;20176;-60
2021/10/04 11:00:33;;;;;;;2.25;1.67;;;;;;;;;;2040485;29;20179;-61
2021/10/04 11:01:33;;;;;;;6.07;2.33;;;;;;;;;;2012846;29;20213;-60
2021/10/04 11:02:49;;;;;;;3.10;1.88;;;;;;;;;;2015278;29;20182;-60
2021/10/04 11:03:51;;;;;;;2.00;1.90;;;;;;;;;;2013373;29;20212;-65
2021/10/04 11:04:52;;;;;;;6.70;2.95;;;;;;;;;;2014671;29;20185;-61
2021/10/04 11:05:56;;;;;;;5.22;1.90;;;;;;;;;;2013260;29;20644;-63
2021/10/04 11:06:57;;;;;;;3.03;1.90;;;;;;;;;;2021901;29;20650;-62
2021/10/04 11:07:57;;;;;;;1.85;1.50;;;;;;;;;;2040892;29;20167;-61
2021/10/04 11:08:58;;;;;;;2.28;1.77;;;;;;;;;;2040477;29;20195;-61
2021/10/04 11:10:06;;;;;;;2.95;1.80;;;;;;;;;;2038009;29;20190;-62
2021/10/04 11:11:06;;;;;;;3.15;1.50;;;;;;;;;;2037861;29;20186;-61
2021/10/04 11:12:06;;;;;;;2.65;1.70;;;;;;;;;;2038294;29;20282;-62
2021/10/04 11:13:06;;;;;;;2.53;1.80;;;;;;;;;;2040339;29;20262;-63
2021/10/04 11:14:08;;;;;;;3.40;2.10;;;;;;;;;;2037289;29;20530;-64
2021/10/04 11:15:26;;;;;;;2.10;1.70;;;;;;;;;;2039268;29;20203;-63
2021/10/04 11:16:26;;;;;;;1.70;1.60;;;;;;;;;;2040283;29;20268;-64
2021/10/04 11:17:47;;;;;;;2.38;1.50;;;;;;;;;;2039055;29;20654;-61
2021/10/04 11:18:47;;;;;;;5.05;1.77;;;;;;;;;;2038012;29;20243;-62
2021/10/04 11:19:48;;;;;;;2.08;1.85;;;;;;;;;;2040070;29;20267;-64
2021/10/04 11:20:48;;;;;;;2.72;1.48;;;;;;;;;;2040864;29;20164;-59
2021/10/04 11:21:50;;;;;;;2.58;1.70;;;;;;;;;;2039227;29;20699;-64
2021/10/04 11:23:01;;;;;;;2.38;1.30;;;;;;;;;;2040452;29;20180;-62
2021/10/04 11:24:05;;;;;;;1.77;1.67;;;;;;;;;;2040092;29;20164;-62
2021/10/04 11:25:06;;;;;;;4.88;1.92;;;;;;;;;;2037786;29;20199;-63
2021/10/04 11:26:09;;;;;;;3.67;1.70;;;;;;;;;;2040091;29;20176;-64
2021/10/04 11:27:09;;;;;;;2.33;1.83;;;;;;;;;;2039724;29;20767;-64
2021/10/04 11:28:11;;;;;;;5.75;1.75;;;;;;;;;;2040121;29;20226;-63
2021/10/04 11:29:11;;;;;;;6.55;2.28;;;;;;;;;;2038936;29;20184;-64
2021/10/04 11:30:11;;;;;;;7.35;2.00;;;;;;;;;;2038359;29;20183;-62
2021/10/04 11:31:12;;;;;;;3.13;1.50;;;;;;;;;;2039159;29;20648;-63
2021/10/04 11:32:14;;;;;;;2.33;1.73;;;;;;;;;;2040364;29;20723;-65
2021/10/04 11:33:14;;;;;;;4.60;1.70;;;;;;;;;;2036817;29;20240;-65
2021/10/04 11:34:17;;;;;;;4.68;2.05;;;;;;;;;;2038906;29;20715;-66
2021/10/04 11:35:18;;;;;;;7.15;2.20;;;;;;;;;;2047449;29;20194;-65
2021/10/04 11:36:20;;;;;;;8.32;2.08;;;;;;;;;;2048344;29;20222;-63
2021/10/04 11:37:24;;;;;;;3.10;1.80;;;;;;;;;;2035366;29;20176;-63
2021/10/04 11:38:25;;;;;;;10.30;3.13;;;;;;;;;;2047089;28;20221;-62
2021/10/04 11:39:29;;;;;;;4.95;2.28;;;;;;;;;;2046721;28;20183;-58
2021/10/04 11:40:30;;;;;;;3.78;2.17;;;;;;;;;;2040569;29;20504;-64
2021/10/04 11:41:37;;;;;;;2.50;2.00;;;;;;;;;;2040297;29;20850;-61
2021/10/04 11:42:38;;;;;;;4.18;1.63;;;;;;;;;;2040647;29;20163;-65
2021/10/04 11:43:42;;;;;;;4.05;2.00;;;;;;;;;;2040557;29;20298;-64
2021/10/04 11:44:43;;;;;;;2.65;1.70;;;;;;;;;;2040105;29;20679;-64
2021/10/04 11:45:43;;;;;;;3.75;1.70;;;;;;;;;;2047278;29;20996;-65
2021/10/04 11:46:46;;;;;;;5.53;2.30;;;;;;;;;;2046883;29;20213;-65
2021/10/04 11:47:46;;;;;;;8.05;2.63;;;;;;;;;;2039371;29;20188;-63
2021/10/04 11:48:47;;;;;;;8.40;2.50;;;;;;;;;;2040427;29;20643;-62
2021/10/04 11:49:50;;;;;;;3.38;2.45;;;;;;;;;;2047735;28;20183;-62
2021/10/04 11:50:51;;;;;;;4.35;1.70;;;;;;;;;;2047796;29;20226;-63
2021/10/04 11:51:53;;;;;;;7.03;2.40;;;;;;;;;;2048089;29;20182;-63
2021/10/04 11:52:53;;;;;;;2.53;1.80;;;;;;;;;;2040806;29;20230;-63
2021/10/04 11:53:54;;;;;;;3.30;2.10;;;;;;;;;;2040511;29;20172;-63
2021/10/04 11:54:55;;;;;;;5.43;2.38;;;;;;;;;;2038520;29;20197;-61
2021/10/04 11:55:57;;;;;;;9.65;2.30;;;;;;;;;;2040375;29;20197;-62
2021/10/04 11:56:57;;;;;;;8.50;2.30;;;;;;;;;;2039479;29;20230;-60
2021/10/04 11:57:58;;;;;;;5.75;2.30;;;;;;;;;;2040481;29;20195;-63
2021/10/04 11:58:58;;;;;;;3.20;1.70;;;;;;;;;;2040736;29;20662;-62
2021/10/04 12:00:00;;;;;;;4.55;1.80;;;;;;;;;;2039897;29;20655;-66
2021/10/04 12:01:01;;;;;;;6.25;2.20;;;;;;;;;;2040082;29;20203;-64
2021/10/04 12:02:15;;;;;;;7.50;2.00;;;;;;;;;;2039248;29;20160;-62
2021/10/04 12:03:29;;;;;;;8.35;1.75;;;;;;;;;;2040292;29;20194;-64
2021/10/04 12:04:29;;;;;;;6.88;2.33;;;;;;;;;;2039231;29;20178;-61
2021/10/04 12:05:31;;;;;;;2.08;1.70;;;;;;;;;;2040462;29;20199;-63
2021/10/04 12:06:32;;;;;;;2.25;1.75;;;;;;;;;;2040721;29;20266;-62
2021/10/04 12:07:34;;;;;;;1.70;1.60;;;;;;;;;;2039543;29;20164;-61
2021/10/04 12:08:38;;;;;;;5.15;2.03;;;;;;;;;;2030504;29;20172;-65
2021/10/04 12:09:38;;;;;;;6.78;2.28;;;;;;;;;;2030324;29;20185;-61
2021/10/04 12:10:59;;;;;;;4.43;1.90;;;;;;;;;;2038042;29;20176;-64
2021/10/04 12:11:59;;;;;;;4.32;2.45;;;;;;;;;;2038124;29;20240;-66
2021/10/04 12:12:59;;;;;;;2.97;1.73;;;;;;;;;;2039285;29;20691;-64
2021/10/04 12:14:00;;;;;;;5.70;2.78;;;;;;;;;;2040228;29;20178;-64
2021/10/04 12:15:01;;;;;;;3.85;1.98;;;;;;;;;;2039828;29;20183;-63
2021/10/04 12:16:06;;;;;;;4.60;1.60;;;;;;;;;;2039640;29;20227;-63
2021/10/04 12:17:06;;;;;;;3.38;1.52;;;;;;;;;;2038397;29;20678;-63
2021/10/04 12:18:10;;;;;;;3.65;1.73;;;;;;;;;;2038522;29;20200;-63
2021/10/04 12:19:11;;;;;;;3.67;1.88;;;;;;;;;;2039479;29;20237;-66
2021/10/04 12:20:21;;;;;;;3.50;1.45;;;;;;;;;;2038611;29;20181;-61
2021/10/04 12:21:21;;;;;;;3.53;1.33;;;;;;;;;;2033822;29;20180;-64
2021/10/04 12:22:28;;;;;;;2.45;1.50;;;;;;;;;;2039398;29;20588;-65
2021/10/04 12:23:28;;;;;;;2.85;1.95;;;;;;;;;;2038321;29;20209;-63
2021/10/04 12:24:30;;;;;;;3.75;1.98;;;;;;;;;;2039425;29;20660;-63
2021/10/04 12:25:32;;;;;;;6.80;2.13;;;;;;;;;;2039010;29;20187;-62
2021/10/04 12:26:32;;;;;;;4.22;2.45;;;;;;;;;;2038671;29;20736;-64
2021/10/04 12:27:33;;;;;;;5.13;2.15;;;;;;;;;;2040067;29;20180;-62
2021/10/04 12:28:42;;;;;;;5.32;2.20;;;;;;;;;;2039828;29;20343;-64
2021/10/04 12:29:57;;;;;;;3.47;1.85;;;;;;;;;;2039117;29;20182;-64
2021/10/04 12:30:57;;;;;;;3.70;1.80;;;;;;;;;;2037763;29;20184;-64
2021/10/04 12:32:13;;;;;;;4.05;2.47;;;;;;;;;;2039452;29;20180;-62
2021/10/04 12:33:14;;;;;;;6.95;2.13;;;;;;;;;;2039068;29;20203;-64
2021/10/04 12:34:21;;;;;;;2.90;1.55;;;;;;;;;;2037082;29;20181;-65
2021/10/04 12:35:24;;;;;;;2.70;1.65;;;;;;;;;;2046446;29;20164;-61
2021/10/04 12:36:25;;;;;;;2.65;1.40;;;;;;;;;;2043769;28;20192;-63
2021/10/04 12:37:25;;;;;;;3.13;1.50;;;;;;;;;;2039483;29;20192;-62
2021/10/04 12:38:26;;;;;;;2.75;1.23;;;;;;;;;;2039247;29;20691;-62
2021/10/04 12:39:39;;;;;;;3.72;1.55;;;;;;;;;;2040170;29;20211;-57
2021/10/04 12:40:44;;;;;;;1.85;1.63;;;;;;;;;;2045307;29;20620;-66
2021/10/04 12:41:46;;;;;;;1.42;1.33;;;;;;;;;;2038815;29;20168;-60
2021/10/04 12:42:46;;;;;;;3.75;1.20;;;;;;;;;;2039530;29;20216;-63
2021/10/04 12:43:46;;;;;;;3.72;1.92;;;;;;;;;;2039795;29;20771;-64
2021/10/04 12:44:47;;;;;;;4.18;2.00;;;;;;;;;;2038695;29;20227;-62
2021/10/04 12:46:07;;;;;;;4.28;1.88;;;;;;;;;;2039033;29;20613;-63
2021/10/04 12:47:10;;;;;;;5.30;1.95;;;;;;;;;;2038717;29;21899;-60
2021/10/04 12:48:15;;;;;;;3.92;1.63;;;;;;;;;;2039112;29;20536;-61
2021/10/04 12:49:20;;;;;;;8.70;1.75;;;;;;;;;;2039500;29;20188;-64
2021/10/04 12:50:21;;;;;;;9.68;2.50;;;;;;;;;;2039713;29;20182;-64
2021/10/04 12:51:23;;;;;;;3.97;2.10;;;;;;;;;;2038850;29;20675;-64
2021/10/04 12:52:25;;;;;;;8.23;2.17;;;;;;;;;;2040764;29;20656;-63
2021/10/04 12:53:25;;;;;;;6.57;2.30;;;;;;;;;;2043712;29;20203;-62
2021/10/04 12:54:33;;;;;;;6.07;2.60;;;;;;;;;;2039799;29;20258;-63
2021/10/04 12:55:43;;;;;;;3.83;2.08;;;;;;;;;;2039399;29;20274;-62
2021/10/04 12:56:50;;;;;;;4.30;2.25;;;;;;;;;;2040261;29;20732;-63
2021/10/04 12:57:50;;;;;;;4.15;2.25;;;;;;;;;;2038282;29;20935;-63
2021/10/04 12:59:00;;;;;;;8.50;2.90;;;;;;;;;;2037613;29;20176;-62
2021/10/04 13:00:01;;;;;;;7.50;2.55;;;;;;;;;;2040995;29;20186;-62
2021/10/04 13:01:09;;;;;;;5.97;1.98;;;;;;;;;;2039707;29;20199;-64
2021/10/04 13:02:15;;;;;;;5.50;2.05;;;;;;;;;;2042512;29;20194;-63
2021/10/04 13:03:15;;;;;;;7.88;2.58;;;;;;;;;;2047202;28;20282;-63
2021/10/04 13:04:16;;;;;;;3.22;1.65;;;;;;;;;;2049169;29;20175;-59
2021/10/04 13:05:16;;;;;;;7.55;2.50;;;;;;;;;;2038835;29;20235;-64
2021/10/04 13:06:16;;;;;;;8.30;2.40;;;;;;;;;;2039288;29;20652;-64
2021/10/04 13:07:17;;;;;;;7.78;1.90;;;;;;;;;;2037521;29;20175;-65
2021/10/04 13:08:17;;;;;;;6.32;1.70;;;;;;;;;;2040850;29;20214;-64
2021/10/04 13:09:18;;;;;;;6.40;1.90;;;;;;;;;;2038938;29;20180;-62
2021/10/04 13:10:18;;;;;;;3.03;1.50;;;;;;;;;;2048311;29;20206;-63
2021/10/04 13:11:18;;;;;;;6.25;1.77;;;;;;;;;;2048512;29;20233;-64
2021/10/04 13:12:22;;;;;;;6.13;1.50;;;;;;;;;;2041179;29;20267;-63
2021/10/04 13:13:22;;;;;;;3.92;1.63;;;;;;;;;;2040287;29;20743;-61
2021/10/04 13:14:23;;;;;;;4.50;1.38;;;;;;;;;;2040402;29;20187;-64
2021/10/04 13:15:24;;;;;;;5.40;1.30;;;;;;;;;;2040578;29;20652;-61
2021/10/04 13:16:25;;;;;;;2.15;1.38;;;;;;;;;;2041003;29;20191;-63
2021/10/04 13:17:25;;;;;;;3.80;1.40;;;;;;;;;;2040200;29;20179;-63
2021/10/04 13:18:25;;;;;;;2.95;1.60;;;;;;;;;;2039393;29;20234;-62
2021/10/04 13:19:26;;;;;;;3.22;1.35;;;;;;;;;;2038063;29;20256;-56
2021/10/04 13:20:26;;;;;;;3.63;1.10;;;;;;;;;;2037657;29;20175;-65
2021/10/04 13:21:26;;;;;;;1.83;1.10;;;;;;;;;;2038746;29;20199;-61
2021/10/04 13:22:27;;;;;;;3.47;1.40;;;;;;;;;;2039917;29;20172;-64
2021/10/04 13:23:27;;;;;;;4.72;2.03;;;;;;;;;;2039383;29;20219;-64
2021/10/04 13:24:27;;;;;;;5.82;1.40;;;;;;;;;;2038961;29;20200;-65
2021/10/04 13:25:27;;;;;;;7.28;2.03;;;;;;;;;;2030546;29;20207;-64
2021/10/04 13:26:28;;;;;;;2.33;1.42;;;;;;;;;;2038330;29;20263;-65
2021/10/04 13:27:28;;;;;;;4.78;1.75;;;;;;;;;;2047713;29;20195;-62
2021/10/04 13:28:29;;;;;;;4.05;1.80;;;;;;;;;;2048040;28;20261;-65
2021/10/04 13:29:29;;;;;;;3.38;1.73;;;;;;;;;;2038626;29;20181;-62
2021/10/04 13:30:29;;;;;;;3.58;1.70;;;;;;;;;;2040383;29;20363;-62
2021/10/04 13:31:30;;;;;;;3.95;1.85;;;;;;;;;;2040032;29;20172;-64
2021/10/04 13:32:30;;;;;;;7.65;1.75;;;;;;;;;;2038159;29;20298;-62
2021/10/04 13:33:30;;;;;;;2.00;1.40;;;;;;;;;;2039291;29;20191;-63
2021/10/04 13:34:30;;;;;;;3.60;1.50;;;;;;;;;;2041989;29;20183;-61
2021/10/04 13:35:31;;;;;;;1.50;1.40;;;;;;;;;;2041959;29;20619;-63
2021/10/04 13:36:31;;;;;;;2.22;1.52;;;;;;;;;;2041870;29;20179;-63
2021/10/04 13:37:32;;;;;;;3.85;2.00;;;;;;;;;;2041870;29;20195;-59
2021/10/04 13:38:32;;;;;;;4.20;1.27;;;;;;;;;;2041530;29;20182;-62
2021/10/04 13:39:33;;;;;;;2.40;1.50;;;;;;;;;;2041535;29;20163;-64
2021/10/04 13:40:33;;;;;;;3.75;1.60;;;;;;;;;;2039886;29;20274;-59
2021/10/04 13:41:33;;;;;;;8.02;1.50;;;;;;;;;;2040622;29;20539;-62
2021/10/04 13:42:38;;;;;;;4.00;1.90;;;;;;;;;;2040159;29;20660;-62
2021/10/04 13:43:38;;;;;;;8.60;2.13;;;;;;;;;;2040692;29;20207;-62
2021/10/04 13:44:39;;;;;;;12.45;2.67;;;;;;;;;;2038659;29;20211;-61
2021/10/04 13:45:39;;;;;;;6.47;2.25;;;;;;;;;;2037678;29;20194;-63
2021/10/04 13:46:40;;;;;;;6.80;1.85;;;;;;;;;;2037612;29;20234;-61
2021/10/04 13:47:40;;;;;;;5.53;2.05;;;;;;;;;;2038966;29;20190;-66
2021/10/04 13:48:41;;;;;;;4.18;1.67;;;;;;;;;;2040655;29;20643;-61
2021/10/04 13:49:42;;;;;;;6.20;2.25;;;;;;;;;;2041084;29;20186;-61
2021/10/04 13:50:42;;;;;;;8.35;2.22;;;;;;;;;;2038701;29;20259;-61
2021/10/04 13:51:44;;;;;;;8.40;2.30;;;;;;;;;;2039363;29;20208;-59
2021/10/04 13:52:45;;;;;;;5.40;1.90;;;;;;;;;;2041976;29;20581;-62
2021/10/04 13:53:49;;;;;;;8.82;2.63;;;;;;;;;;2040993;29;20210;-61
2021/10/04 13:54:50;;;;;;;6.88;2.33;;;;;;;;;;2041049;29;20178;-61
2021/10/04 13:55:50;;;;;;;7.82;2.22;;;;;;;;;;2041982;29;20184;-60
2021/10/04 13:56:51;;;;;;;8.98;2.10;;;;;;;;;;2036037;29;20738;-64
2021/10/04 13:57:51;;;;;;;4.47;1.63;;;;;;;;;;2038289;29;20759;-61
2021/10/04 13:58:52;;;;;;;4.55;1.67;;;;;;;;;;2041426;29;20545;-64
2021/10/04 13:59:52;;;;;;;1.88;1.40;;;;;;;;;;2040248;29;20187;-61
2021/10/04 14:00:52;;;;;;;1.95;1.75;;;;;;;;;;2039443;29;20211;-65
2021/10/04 14:01:53;;;;;;;3.15;1.50;;;;;;;;;;2040360;29;20674;-64
2021/10/04 14:02:53;;;;;;;5.75;2.00;;;;;;;;;;2040607;29;20192;-61
2021/10/04 14:03:53;;;;;;;8.68;2.47;;;;;;;;;;2039851;29;20211;-64
2021/10/04 14:04:53;;;;;;;6.40;1.75;;;;;;;;;;2039323;29;20700;-59
2021/10/04 14:05:54;;;;;;;7.13;2.22;;;;;;;;;;2040688;29;20222;-63
2021/10/04 14:06:54;;;;;;;8.10;2.15;;;;;;;;;;2039082;29;20168;-63
2021/10/04 14:07:55;;;;;;;3.22;2.20;;;;;;;;;;2040837;29;20222;-60
2021/10/04 14:08:56;;;;;;;7.05;2.08;;;;;;;;;;2039772;29;20207;-64
2021/10/04 14:09:57;;;;;;;9.43;2.65;;;;;;;;;;2040810;29;20589;-64
2021/10/04 14:10:57;;;;;;;9.48;1.95;;;;;;;;;;2037476;29;20750;-61
2021/10/04 14:11:59;;;;;;;4.20;2.05;;;;;;;;;;2038889;29;20172;-61
2021/10/04 14:12:59;;;;;;;5.88;1.60;;;;;;;;;;2048349;28;20225;-61
2021/10/04 14:14:00;;;;;;;6.63;1.75;;;;;;;;;;2048584;29;20576;-61
2021/10/04 14:15:00;;;;;;;6.97;1.88;;;;;;;;;;2040770;29;20690;-60
2021/10/04 14:16:00;;;;;;;4.15;1.55;;;;;;;;;;2041181;29;20179;-65
2021/10/04 14:17:01;;;;;;;3.72;1.70;;;;;;;;;;2034666;29;20180;-62
2021/10/04 14:18:01;;;;;;;3.67;1.58;;;;;;;;;;2040609;29;20770;-61
2021/10/04 14:19:01;;;;;;;3.28;1.33;;;;;;;;;;2041594;29;20175;-63
2021/10/04 14:20:02;;;;;;;1.77;1.13;;;;;;;;;;2040196;29;20802;-61
2021/10/04 14:21:02;;;;;;;3.15;1.50;;;;;;;;;;2040150;29;20572;-65
2021/10/04 14:22:03;;;;;;;3.10;1.30;;;;;;;;;;2038849;29;20183;-63
2021/10/04 14:23:03;;;;;;;1.45;1.30;;;;;;;;;;2040492;29;20175;-64
2021/10/04 14:24:04;;;;;;;2.53;1.40;;;;;;;;;;2040029;29;20266;-61
2021/10/04 14:25:05;;;;;;;3.13;1.50;;;;;;;;;;2038423;29;20200;-64
2021/10/04 14:26:05;;;;;;;2.70;1.70;;;;;;;;;;2035262;29;20180;-62
2021/10/04 14:27:06;;;;;;;3.13;1.80;;;;;;;;;;2040528;29;20203;-59
2021/10/04 14:28:06;;;;;;;1.67;1.30;;;;;;;;;;2040619;29;20199;-63
2021/10/04 14:29:06;;;;;;;3.53;1.58;;;;;;;;;;2039984;29;20638;-62
2021/10/04 14:30:08;;;;;;;1.40;1.30;;;;;;;;;;2039831;29;20175;-65
2021/10/04 14:31:08;;;;;;;1.63;1.30;;;;;;;;;;2039920;29;20199;-60
2021/10/04 14:32:08;;;;;;;3.70;1.85;;;;;;;;;;2032685;29;20176;-60
2021/10/04 14:33:09;;;;;;;2.28;1.30;;;;;;;;;;2036197;29;20573;-62
2021/10/04 14:34:10;;;;;;;1.95;1.50;;;;;;;;;;2040472;29;20179;-62
2021/10/04 14:35:14;;;;;;;2.75;1.48;;;;;;;;;;2039754;29;20179;-60
2021/10/04 14:36:15;;;;;;;2.50;1.27;;;;;;;;;;2041129;29;20567;-61
2021/10/04 14:37:15;;;;;;;2.70;1.38;;;;;;;;;;2037572;29;20203;-65
2021/10/04 14:38:15;;;;;;;3.63;1.48;;;;;;;;;;2040343;29;20198;-62
2021/10/04 14:39:16;;;;;;;1.70;1.13;;;;;;;;;;2036242;29;20191;-67
2021/10/04 14:40:17;;;;;;;1.92;1.30;;;;;;;;;;2028166;29;20199;-67
2021/10/04 14:41:19;;;;;;;1.95;1.27;;;;;;;;;;2038685;29;20191;-65
2021/10/04 14:42:21;;;;;;;2.55;1.20;;;;;;;;;;2067771;23;20254;-54
2021/10/04 14:43:21;;;;;;;3.28;1.60;;;;;;;;;;2048324;29;20619;-52
2021/10/04 14:44:21;;;;;;;2.42;1.35;;;;;;;;;;2046889;29;20214;-57
2021/10/04 14:45:23;;;;;;;2.70;1.30;;;;;;;;;;2045948;29;20191;-56
2021/10/04 14:46:23;;;;;;;1.88;1.35;;;;;;;;;;2044194;29;20183;-56
2021/10/04 14:47:23;;;;;;;2.25;1.30;;;;;;;;;;2044045;29;20202;-56
2021/10/04 14:48:23;;;;;;;2.10;1.33;;;;;;;;;;2046637;28;20237;-54
2021/10/04 14:49:24;;;;;;;3.22;1.45;;;;;;;;;;2047719;29;20635;-53
2021/10/04 14:50:24;;;;;;;1.50;1.20;;;;;;;;;;2047810;29;20176;-59
2021/10/04 14:51:25;;;;;;;1.50;1.40;;;;;;;;;;2045078;29;20927;-55
2021/10/04 14:52:25;;;;;;;2.95;1.77;;;;;;;;;;2037077;28;20191;-58
2021/10/04 14:53:25;;;;;;;2.60;1.60;;;;;;;;;;2032177;29;20176;-55
2021/10/04 14:54:26;;;;;;;2.17;1.45;;;;;;;;;;2030467;29;20173;-52
2021/10/04 14:55:26;;;;;;;3.92;1.30;;;;;;;;;;2047384;29;20214;-57
2021/10/04 14:56:26;;;;;;;2.92;1.27;;;;;;;;;;2038815;29;20184;-55
2021/10/04 14:57:27;;;;;;;1.98;1.50;;;;;;;;;;2038612;29;20210;-53
2021/10/04 14:58:27;;;;;;;4.07;1.65;;;;;;;;;;2037636;29;20187;-58
2021/10/04 14:59:27;;;;;;;3.97;1.80;;;;;;;;;;2037296;29;20176;-56
2021/10/04 15:00:27;;;;;;;2.17;1.60;;;;;;;;;;2033047;29;20676;-54
2021/10/04 15:01:31;;;;;;;2.35;1.60;;;;;;;;;;2031307;29;20175;-56
2021/10/04 15:02:32;;;;;;;1.10;1.10;;;;;;;;;;2037403;29;20851;-57
2021/10/04 15:03:32;;;;;;;1.85;1.42;;;;;;;;;;2034298;29;20208;-54
2021/10/04 15:04:32;;;;;;;1.77;1.20;;;;;;;;;;2038112;29;20171;-56
2021/10/04 15:05:35;;;;;;;3.50;1.30;;;;;;;;;;2042625;29;20191;-56
2021/10/04 15:06:35;;;;;;;1.70;1.40;;;;;;;;;;2042100;29;20187;-57
2021/10/04 15:07:36;;;;;;;0.90;0.90;;;;;;;;;;2032450;29;20604;-55
2021/10/04 15:08:37;;;;;;;2.63;1.20;;;;;;;;;;2032425;29;20168;-56
2021/10/04 15:09:37;;;;;;;1.35;1.25;;;;;;;;;;2040646;29;20659;-56
2021/10/04 15:10:39;;;;;;;1.70;1.30;;;;;;;;;;2040840;29;20254;-57
2021/10/04 15:11:39;;;;;;;1.45;1.13;;;;;;;;;;2034662;29;20190;-51
2021/10/04 15:12:39;;;;;;;1.20;0.90;;;;;;;;;;2047402;29;20273;-56
2021/10/04 15:13:40;;;;;;;1.75;1.45;;;;;;;;;;2048100;28;20329;-55
2021/10/04 15:14:40;;;;;;;3.05;1.67;;;;;;;;;;2040058;29;20591;-54
2021/10/04 15:15:40;;;;;;;3.40;1.40;;;;;;;;;;2039957;29;20187;-57
2021/10/04 15:16:40;;;;;;;2.45;1.35;;;;;;;;;;2033468;29;20176;-54
2021/10/04 15:17:41;;;;;;;3.50;1.63;;;;;;;;;;2032738;29;20196;-56
2021/10/04 15:18:41;;;;;;;2.53;1.50;;;;;;;;;;2040270;29;20212;-51
2021/10/04 15:19:42;;;;;;;5.28;1.58;;;;;;;;;;2040446;29;20195;-54
2021/10/04 15:20:42;;;;;;;5.45;1.35;;;;;;;;;;2033505;29;20168;-56
2021/10/04 15:21:42;;;;;;;3.35;1.25;;;;;;;;;;2040180;29;20603;-56
2021/10/04 15:22:42;;;;;;;1.63;1.52;;;;;;;;;;2040305;28;20201;-52
2021/10/04 15:23:43;;;;;;;2.08;1.40;;;;;;;;;;2040230;29;20168;-53
2021/10/04 15:24:43;;;;;;;3.03;1.63;;;;;;;;;;2040118;29;20191;-54
2021/10/04 15:25:44;;;;;;;1.90;1.42;;;;;;;;;;2040897;29;20641;-55
2021/10/04 15:26:44;;;;;;;1.48;1.35;;;;;;;;;;2046836;29;20587;-59
2021/10/04 15:27:44;;;;;;;4.53;1.70;;;;;;;;;;2047718;29;20250;-60
2021/10/04 15:28:44;;;;;;;2.60;1.58;;;;;;;;;;2039701;29;20178;-56
2021/10/04 15:29:45;;;;;;;2.00;1.75;;;;;;;;;;2041341;29;20215;-55
2021/10/04 15:30:45;;;;;;;1.90;1.60;;;;;;;;;;2038865;29;20173;-59
2021/10/04 15:31:46;;;;;;;2.35;1.23;;;;;;;;;;2041954;29;20230;-60
2021/10/04 15:32:46;;;;;;;1.67;1.30;;;;;;;;;;2038856;29;20168;-52
2021/10/04 15:33:46;;;;;;;2.55;1.58;;;;;;;;;;2048307;29;20182;-53
2021/10/04 15:34:46;;;;;;;3.85;1.50;;;;;;;;;;2045707;29;20188;-53
2021/10/04 15:35:47;;;;;;;6.53;1.52;;;;;;;;;;2041292;29;20171;-57
2021/10/04 15:36:48;;;;;;;1.40;1.20;;;;;;;;;;2041232;29;20167;-55
2021/10/04 15:37:48;;;;;;;2.22;1.60;;;;;;;;;;2040673;29;20191;-59
2021/10/04 15:38:49;;;;;;;2.70;1.52;;;;;;;;;;2041020;29;20586;-60
2021/10/04 15:39:49;;;;;;;3.20;1.70;;;;;;;;;;2041506;29;20226;-54
2021/10/04 15:40:51;;;;;;;1.92;1.40;;;;;;;;;;2032765;29;20640;-55
2021/10/04 15:41:51;;;;;;;1.50;1.30;;;;;;;;;;2025199;29;20203;-59
2021/10/04 15:42:51;;;;;;;3.03;1.50;;;;;;;;;;2041208;29;20184;-57
2021/10/04 15:43:51;;;;;;;2.28;1.50;;;;;;;;;;2043759;29;20192;-53
2021/10/04 15:44:52;;;;;;;1.98;1.48;;;;;;;;;;2035816;29;20561;-57
2021/10/04 15:45:52;;;;;;;2.70;1.38;;;;;;;;;;2041038;29;20168;-55
2021/10/04 15:46:52;;;;;;;1.40;1.30;;;;;;;;;;2034397;29;20172;-57
2021/10/04 15:47:53;;;;;;;1.70;1.60;;;;;;;;;;2041219;29;20298;-56
2021/10/04 15:48:53;;;;;;;2.42;1.60;;;;;;;;;;2041315;29;20658;-57
2021/10/04 15:49:53;;;;;;;2.55;1.70;;;;;;;;;;2041171;29;20172;-56
2021/10/04 15:50:54;;;;;;;2.55;1.65;;;;;;;;;;2042534;29;20631;-59
2021/10/04 15:51:54;;;;;;;1.83;1.70;;;;;;;;;;2041380;29;20199;-55
2021/10/04 15:52:54;;;;;;;2.80;2.05;;;;;;;;;;2036486;29;20179;-57
2021/10/04 15:53:55;;;;;;;2.08;1.98;;;;;;;;;;2032598;29;20180;-57
2021/10/04 15:54:55;;;;;;;2.22;1.92;;;;;;;;;;2033761;29;20168;-58
2021/10/04 15:56:03;;;;;;;3.47;1.80;;;;;;;;;;2041296;29;20187;-55
2021/10/04 15:57:03;;;;;;;2.63;1.58;;;;;;;;;;2040912;29;20170;-57
2021/10/04 15:58:04;;;;;;;1.33;1.30;;;;;;;;;;2041004;29;20187;-56
2021/10/04 15:59:09;;;;;;;2.58;1.50;;;;;;;;;;2041811;29;20183;-58
2021/10/04 16:00:11;;;;;;;1.65;1.30;;;;;;;;;;2040772;29;20206;-54
2021/10/04 16:01:12;;;;;;;2.95;1.55;;;;;;;;;;2042049;29;20547;-57
2021/10/04 16:02:12;;;;;;;2.47;1.88;;;;;;;;;;2039634;29;20238;-56
2021/10/04 16:03:12;;;;;;;2.35;1.42;;;;;;;;;;2042036;29;20251;-57
2021/10/04 16:04:13;;;;;;;3.17;1.90;;;;;;;;;;2041389;29;20179;-55
2021/10/04 16:05:13;;;;;;;2.85;1.83;;;;;;;;;;2043358;29;20186;-56
2021/10/04 16:06:13;;;;;;;4.18;1.95;;;;;;;;;;2043864;29;20187;-55
2021/10/04 16:07:19;;;;;;;2.47;1.67;;;;;;;;;;2041105;29;20175;-58
2021/10/04 16:08:21;;;;;;;3.88;1.70;;;;;;;;;;2044933;29;20266;-53
2021/10/04 16:09:22;;;;;;;3.88;2.33;;;;;;;;;;2041552;29;20168;-53
2021/10/04 16:10:23;;;;;;;4.80;3.25;;;;;;;;;;2042077;29;20199;-56
2021/10/04 16:11:23;;;;;;;2.75;2.53;;;;;;;;;;2042018;29;20222;-56
2021/10/04 16:12:23;;;;;;;4.63;2.88;;;;;;;;;;2040821;29;20212;-54
2021/10/04 16:13:24;;;;;;;2.95;2.40;;;;;;;;;;2043355;29;20195;-55
2021/10/04 16:14:24;;;;;;;3.08;2.45;;;;;;;;;;2043915;29;20197;-52
2021/10/04 16:15:24;;;;;;;1.90;1.80;;;;;;;;;;2038948;29;20172;-56